Station: Young  

  Atmospheric Gas Attenuation - ITU Rec 676-11   ----------------- dB/100km -----------------
Date Time Temp RH % AH g/m3 Dew Point Wind Direction Speed kph Gust kph Barometer mB Rainfall Since 9am 24GHz 47GHz 76GHz 122GHz 134GHz 241GHz
08/05 12:30 9.9 93 8.69 8.8 7 13 1022.5 0.2 20.0 27.6 42.6 111.8 105.6 362.9
08/05 12:20 9.9 95 8.87 9.1 6 7 1022.4 0.2 20.4 27.9 43.4 113.9 108.1 371.8
08/05 12:10 9.5 95 8.65 8.7 11 11 1022.5 0.2 19.9 27.6 42.7 112.0 105.6 362.8
08/05 12:00 9.2 95 8.49 8.4 11 15 1022.9 0.2 19.6 27.5 42.2 110.6 103.7 356.4
08/05 11:50 9.1 95 8.43 8.3 9 11 1023 0.2 19.4 27.4 42.0 110.1 103.0 354.0
08/05 11:40 9 94 8.29 8.1 13 15 1023.1 0.2 19.1 27.2 41.4 108.6 101.2 347.5
08/05 11:30 8.8 94 8.18 7.9 11 15 1023.3 0.2 18.9 27.1 41.1 107.7 99.9 343.1
08/05 11:20 8.6 94 8.08 7.7 13 13 1023.3 0 18.7 27.0 40.8 106.8 98.8 339.1
08/05 11:10 8.5 94 8.03 7.6 13 15 1023.3 0 18.6 26.9 40.6 106.4 98.2 337.0
08/05 11:00 8.3 93 7.84 7.2 11 17 1023.7 0 18.2 26.7 39.9 104.5 95.9 328.7
08/05 10:50 8.4 94 7.98 7.5 11 15 1023.5 0 18.5 26.9 40.4 106.0 97.7 335.1
08/05 10:40 8.2 93 7.79 7.1 11 13 1023.4 0 18.1 26.6 39.7 104.1 95.3 326.6
08/05 10:30 8.1 93 7.74 7 11 15 1023.8 0 18.0 26.6 39.6 103.7 94.7 324.7
08/05 10:20 8 94 7.77 7.1 11 13 1023.7 0 18.1 26.6 39.8 104.1 95.2 326.5
08/05 10:10 7.9 93 7.64 6.8 7 7 1023.7 0 17.8 26.4 39.3 102.8 93.6 320.6
08/05 10:00 7.6 93 7.5 6.5 9 13 1023.9 0 17.5 26.3 38.8 101.6 92.0 315.1
08/05 09:50 7.4 93 7.4 6.3 11 13 1023.6 0 17.3 26.2 38.5 100.7 90.8 310.9
08/05 09:40 7.3 93 7.35 6.2 11 15 1023.5 0 17.2 26.1 38.3 100.3 90.2 308.9
08/05 09:30 7.1 93 7.26 6 9 15 1023.7 0 17.0 26.0 38.1 99.6 89.2 305.3
08/05 09:20 7.2 94 7.38 6.3 11 13 1023.4 0 17.3 26.2 38.5 100.7 90.8 310.7
08/05 09:10 6.9 94 7.24 6 9 11 1023.5 0 17.0 26.1 38.1 99.6 89.2 305.1
08/05 09:00 6.7 94 7.15 5.8 11 17 1023.7 0 16.8 26.0 37.8 98.8 88.2 301.5
08/05 08:50 6.5 93 6.98 5.5 13 15 1023.3 0 16.4 25.7 37.1 97.1 86.0 294.0
08/05 08:40 6.5 94 7.05 5.6 15 19 1023.3 0 16.6 25.8 37.4 97.9 87.0 297.4
08/05 08:30 6.6 94 7.1 5.7 13 17 1023.3 0 16.7 25.9 37.6 98.4 87.6 299.4
08/05 08:20 6.4 94 7.01 5.5 11 13 1023.3 0 16.5 25.8 37.3 97.6 86.5 295.8
08/05 08:10 6.2 93 6.84 5.2 11 13 1023.3 0 16.1 25.6 36.7 95.9 84.4 288.3
08/05 08:00 6.1 92 6.73 4.9 9 15 1023.4 0 15.9 25.4 36.3 94.8 83.0 283.4
08/05 07:50 6.1 92 6.73 4.9 9 11 1023.2 0 15.9 25.4 36.3 94.8 83.0 283.3
08/05 07:40 6.1 92 6.73 4.9 7 9 1023 0 15.9 25.4 36.3 94.8 83.0 283.3
08/05 07:30 5.9 90 6.49 4.4 11 19 1023.2 0 15.4 25.1 35.4 92.4 79.9 272.5
08/05 07:20 5.9 89 6.42 4.2 11 13 1023.1 0 15.3 24.9 35.1 91.6 78.9 269.1
08/05 07:10 6.1 86 6.29 3.9 13 15 1022.9 0 15.0 24.7 34.4 89.9 77.0 262.2
08/05 07:00 6.1 85 6.21 3.8 11 15 1022.8 0 14.8 24.5 34.1 89.0 75.9 258.4
08/05 06:50 6.2 84 6.18 3.7 11 11 1022.7 0 14.7 24.5 33.9 88.6 75.4 256.7
08/05 06:40 6.2 83 6.11 3.5 11 11 1022.5 0 14.6 24.3 33.7 87.8 74.4 253.3
08/05 06:30 6.2 83 6.11 3.5 13 17 1022.6 0 14.6 24.3 33.7 87.8 74.4 253.4
08/05 06:20 6.2 83 6.11 3.5 11 15 1022.4 0 14.6 24.3 33.6 87.8 74.4 253.3
08/05 06:10 6.2 83 6.11 3.5 9 11 1022.5 0 14.6 24.3 33.7 87.8 74.4 253.3
08/05 06:00 6.1 82 5.99 3.3 11 15 1022.7 0 14.3 24.2 33.2 86.6 72.9 248.1
08/05 05:50 6.2 82 6.03 3.4 9 13 1022.5 0 14.4 24.2 33.3 87.0 73.4 249.6
08/05 05:40 6.2 81 5.96 3.2 9 11 1022.5 0 14.3 24.1 33.0 86.2 72.4 246.3
08/05 05:30 6.2 81 5.96 3.2 9 15 1022.7 0 14.3 24.1 33.1 86.2 72.4 246.4
08/05 05:20 6.2 81 5.96 3.2 9 9 1022.5 0 14.3 24.1 33.0 86.2 72.4 246.3
08/05 05:10 6.2 81 5.96 3.2 7 7 1022.5 0 14.3 24.1 33.0 86.2 72.4 246.3
08/05 05:00 6.1 81 5.92 3.1 9 13 1022.7 0 14.2 24.1 32.9 85.9 72.0 244.8
08/05 04:50 6.1 80 5.85 2.9 9 11 1022.4 0 14.0 23.9 32.6 85.1 71.0 241.5
08/05 04:40 6.1 81 5.92 3.1 7 9 1022.4 0 14.2 24.0 32.9 85.9 72.0 244.7
08/05 04:30 6 80 5.81 2.8 6 9 1022.5 0 13.9 23.9 32.5 84.8 70.6 239.9
08/05 04:20 6 81 5.88 3 6 7 1022.1 0 14.1 24.0 32.8 85.5 71.5 243.1
08/05 04:10 6 81 5.88 3 7 9 1022.1 0 14.1 24.0 32.8 85.5 71.5 243.1
08/05 04:00 6 80 5.81 2.8 6 11 1022.5 0 13.9 23.9 32.5 84.8 70.6 239.9
08/05 03:50 6 79 5.74 2.6 4 6 1022.4 0 13.8 23.8 32.2 84.0 69.7 236.7
08/05 03:40 6.1 79 5.78 2.7 9 11 1022.4 0 13.9 23.8 32.4 84.4 70.1 238.2
08/05 03:30 6.1 79 5.78 2.7 7 11 1022.6 0 13.9 23.8 32.4 84.4 70.1 238.3
08/05 03:20 6.2 79 5.81 2.8 7 9 1022.4 0 13.9 23.8 32.4 84.6 70.4 239.3
08/05 03:10 6.3 79 5.85 2.9 6 7 1022.3 0 14.0 23.9 32.6 84.9 70.9 240.8
08/05 03:00 6.5 77 5.78 2.8 6 9 1022.5 0 13.9 23.7 32.2 83.9 69.8 237.0
08/05 02:50 6.5 79 5.93 3.1 7 9 1022.3 0 14.2 23.9 32.8 85.5 71.7 243.9
08/05 02:40 6.6 76 5.74 2.7 9 9 1022.4 0 13.8 23.6 32.0 83.4 69.1 234.9
08/05 02:30 6.6 76 5.74 2.7 7 13 1022.7 0 13.8 23.6 32.0 83.4 69.2 234.9
08/05 02:20 6.6 77 5.82 2.9 6 7 1022.5 0 13.9 23.8 32.3 84.3 70.2 238.6
08/05 02:10 6.6 77 5.82 2.9 9 11 1022.7 0 13.9 23.8 32.3 84.3 70.2 238.6
08/05 02:00 6.5 77 5.78 2.8 7 11 1022.9 0 13.9 23.7 32.2 84.0 69.8 237.1
08/05 01:50 6.6 76 5.74 2.7 11 13 1022.9 0 13.8 23.6 32.0 83.4 69.2 235.0
08/05 01:40 6.4 78 5.82 2.9 7 9 1023 0 13.9 23.8 32.4 84.5 70.4 239.3
08/05 01:30 6.3 78 5.78 2.8 6 9 1023 0 13.9 23.8 32.3 84.2 70.0 237.7
08/05 01:20 6.1 79 5.78 2.7 7 9 1023.1 0 13.9 23.8 32.4 84.4 70.2 238.4
08/05 01:10 6 78 5.66 2.5 7 9 1023 0 13.6 23.7 31.9 83.2 68.7 233.1
08/05 01:00 6 79 5.74 2.6 9 11 1023.2 0 13.8 23.8 32.3 84.1 69.7 236.8
08/05 00:50 5.8 81 5.81 2.8 7 9 1023.1 0 13.9 24.0 32.6 85.1 70.8 240.7
08/05 00:40 5.2 80 5.51 2 7 9 1023.1 0 13.3 23.6 31.7 82.5 67.4 228.5
08/05 00:20 5.3 79 5.48 2 11 11 1023.2 0 13.3 23.6 31.5 82.1 66.9 226.8
08/05 00:10 5.5 78 5.48 2 11 13 1023.3 0 13.2 23.5 31.4 81.9 66.7 226.3
08/05 00:00 5.5 78 5.48 2 11 17 1023.4 0 13.2 23.5 31.4 81.9 66.8 226.3
07/05 23:50 5.7 77 5.48 2 15 17 1023.4 0 13.2 23.5 31.4 81.7 66.6 225.7
07/05 23:40 5.7 77 5.48 2 11 15 1023.4 0 13.2 23.5 31.4 81.7 66.6 225.7
07/05 23:30 5.6 77 5.45 1.9 11 15 1023.6 0 13.2 23.5 31.3 81.5 66.3 224.7
07/05 23:20 5.7 76 5.41 1.8 11 13 1023.3 0 13.1 23.4 31.1 80.9 65.7 222.5
07/05 23:10 5.9 74 5.34 1.6 9 11 1023.3 0 12.9 23.2 30.7 80.0 64.6 218.7
07/05 23:00 6 74 5.37 1.7 11 20 1023.6 0 13.0 23.2 30.8 80.2 64.9 219.9
07/05 22:50 6.3 72 5.33 1.6 13 17 1023.4 0 12.9 23.1 30.5 79.5 64.1 217.2
07/05 22:40 6.5 72 5.4 1.8 15 19 1023.5 0 13.0 23.1 30.7 80.0 64.9 219.8
07/05 22:30 6.6 71 5.36 1.7 15 22 1023.6 0 13.0 23.1 30.6 79.5 64.3 217.8
07/05 22:20 6.8 70 5.36 1.7 13 19 1023.4 0 12.9 23.0 30.5 79.3 64.1 217.2
07/05 22:10 7.1 69 5.38 1.8 17 19 1023.4 0 13.0 23.0 30.4 79.2 64.1 217.3
07/05 22:00 7.2 69 5.42 1.9 13 20 1023.7 0 13.1 23.0 30.6 79.5 64.6 218.8
07/05 21:50 7.3 68 5.38 1.8 15 17 1023.6 0 13.0 22.9 30.4 79.0 64.0 216.8
07/05 21:40 7.2 69 5.42 1.9 11 15 1023.5 0 13.1 23.0 30.6 79.5 64.6 218.8
07/05 21:30 7.2 69 5.42 1.9 11 17 1023.6 0 13.1 23.0 30.6 79.5 64.6 218.8
07/05 21:20 7 69 5.35 1.7 9 13 1023.4 0 12.9 22.9 30.4 79.0 63.8 216.2
07/05 21:10 6.9 70 5.39 1.8 7 11 1023.3 0 13.0 23.0 30.5 79.5 64.4 218.2
07/05 21:00 6.9 70 5.39 1.8 11 17 1023.4 0 13.0 23.0 30.5 79.5 64.4 218.3
07/05 20:50 6.4 73 5.44 1.9 9 13 1023.3 0 13.1 23.2 30.9 80.5 65.5 221.9
07/05 20:40 5.6 74 5.23 1.3 0 2 1023.2 0 12.7 23.1 30.4 79.1 63.4 214.5
07/05 20:30 5.5 73 5.13 1.1 4 7 1023.4 0 12.5 23.0 30.1 78.2 62.2 210.2
07/05 20:20 5.7 73 5.2 1.2 6 7 1023.3 0 12.6 23.0 30.3 78.7 62.9 212.9
07/05 20:10 5.5 73 5.13 1.1 0 0 1023.2 0 12.5 23.0 30.1 78.2 62.2 210.2
07/05 20:00 6.2 70 5.15 1.1 7 13 1023.2 0 12.5 22.8 29.9 77.7 61.9 209.3
07/05 19:50 6.2 70 5.15 1.1 9 11 1023.1 0 12.5 22.8 29.9 77.7 61.9 209.2

Last Refresh: 08-May-2026 12:10:12

Bureau of Meteorology